createdAt,value
2022-10-14T00:01:22.277Z,16.34
2022-10-14T00:03:50.127Z,16.35
2022-10-14T00:06:20.231Z,16.34
2022-10-14T00:08:49.506Z,16.32
2022-10-14T00:11:19.950Z,16.32
2022-10-14T00:13:47.000Z,16.30
2022-10-14T00:16:19.116Z,16.30
2022-10-14T00:18:46.193Z,16.27
2022-10-14T00:21:13.051Z,16.26
2022-10-14T00:23:39.535Z,16.23
2022-10-14T00:26:06.399Z,16.21
2022-10-14T00:28:33.019Z,16.19
2022-10-14T00:31:01.483Z,16.17
2022-10-14T00:33:29.001Z,16.14
2022-10-14T00:36:00.371Z,16.15
2022-10-14T00:38:27.269Z,16.11
2022-10-14T00:40:54.461Z,16.10
2022-10-14T00:43:22.963Z,16.09
2022-10-14T00:45:49.480Z,16.09
2022-10-14T00:48:17.792Z,16.11
2022-10-14T00:50:47.179Z,16.09
2022-10-14T00:53:14.619Z,16.09
2022-10-14T00:55:42.600Z,16.08
2022-10-14T00:58:10.405Z,16.07
2022-10-14T01:00:37.519Z,16.06
2022-10-14T01:03:09.396Z,16.04
2022-10-14T01:05:44.840Z,16.00
2022-10-14T01:08:22.274Z,15.96
2022-10-14T01:11:02.586Z,15.90
2022-10-14T01:16:09.387Z,15.80
2022-10-14T01:18:56.598Z,15.76
2022-10-14T01:21:32.048Z,15.71
2022-10-14T01:24:12.839Z,15.68
2022-10-14T01:27:10.293Z,15.65
2022-10-14T01:30:19.743Z,15.62
2022-10-14T01:33:08.877Z,15.57
2022-10-14T01:35:56.018Z,15.55
2022-10-14T01:38:31.939Z,15.52
2022-10-14T01:41:02.366Z,15.52
2022-10-14T01:43:31.423Z,15.48
2022-10-14T01:46:01.057Z,15.45
2022-10-14T01:48:32.862Z,15.45
2022-10-14T01:51:01.986Z,15.41
2022-10-14T01:53:39.499Z,15.40
2022-10-14T01:56:07.374Z,15.37
2022-10-14T01:58:35.447Z,15.37
2022-10-14T02:01:06.590Z,15.38
2022-10-14T02:03:44.735Z,15.37
2022-10-14T02:06:36.091Z,15.37
2022-10-14T02:09:12.700Z,15.36
2022-10-14T02:12:05.445Z,15.36
2022-10-14T02:14:31.745Z,15.35
2022-10-14T02:17:11.703Z,15.36
2022-10-14T02:19:49.362Z,15.36
2022-10-14T02:22:32.125Z,15.36
2022-10-14T02:25:06.137Z,15.34
2022-10-14T02:27:34.805Z,15.33
2022-10-14T02:30:04.688Z,15.31
2022-10-14T02:32:32.322Z,15.30
2022-10-14T02:35:00.965Z,15.30
2022-10-14T02:37:29.211Z,15.30
2022-10-14T02:40:00.128Z,15.32
2022-10-14T02:42:27.889Z,15.31
2022-10-14T02:44:56.919Z,15.31
2022-10-14T02:47:24.588Z,15.33
2022-10-14T02:49:51.986Z,15.32
2022-10-14T02:52:18.892Z,15.33
2022-10-14T02:54:45.667Z,15.35
2022-10-14T02:57:12.079Z,15.35
2022-10-14T02:59:39.582Z,15.35
2022-10-14T03:02:09.880Z,15.36
2022-10-14T03:04:36.514Z,15.35
2022-10-14T03:07:03.948Z,15.36
2022-10-14T03:09:30.302Z,15.35
2022-10-14T03:11:56.632Z,15.36
2022-10-14T03:14:23.033Z,15.36
2022-10-14T03:16:49.424Z,15.37
2022-10-14T03:19:15.975Z,15.37
2022-10-14T03:21:42.299Z,15.36
2022-10-14T03:24:09.723Z,15.36
2022-10-14T03:26:36.223Z,15.36
2022-10-14T03:29:02.601Z,15.36
2022-10-14T03:31:28.918Z,15.35
2022-10-14T03:33:55.330Z,15.35
2022-10-14T03:36:21.650Z,15.34
2022-10-14T03:38:47.990Z,15.35
2022-10-14T03:41:14.332Z,15.35
2022-10-14T03:43:40.653Z,15.35
2022-10-14T03:46:06.982Z,15.34
2022-10-14T03:48:33.322Z,15.35
2022-10-14T03:50:59.646Z,15.35
2022-10-14T03:53:26.022Z,15.34
2022-10-14T03:55:52.338Z,15.34
2022-10-14T03:58:18.681Z,15.31
2022-10-14T04:00:45.033Z,15.32
2022-10-14T04:03:11.385Z,15.30
2022-10-14T04:05:37.776Z,15.29
2022-10-14T04:08:04.431Z,15.27
2022-10-14T04:10:31.096Z,15.26
2022-10-14T04:12:57.572Z,15.22
2022-10-14T04:15:24.265Z,15.17
2022-10-14T04:17:50.597Z,15.12
2022-10-14T04:20:17.437Z,15.06
2022-10-14T04:22:43.956Z,15.01
2022-10-14T04:25:10.488Z,14.95
2022-10-14T04:27:36.990Z,14.91
2022-10-14T04:30:04.636Z,14.88
2022-10-14T04:32:31.025Z,14.85
2022-10-14T04:34:57.383Z,14.83
2022-10-14T04:37:23.706Z,14.82
2022-10-14T04:39:50.495Z,14.81
2022-10-14T04:42:16.902Z,14.80
2022-10-14T04:44:43.247Z,14.78
2022-10-14T04:47:09.574Z,14.76
2022-10-14T04:49:35.905Z,14.73
2022-10-14T04:52:02.279Z,14.71
2022-10-14T04:54:28.607Z,14.69
2022-10-14T04:56:54.956Z,14.68
2022-10-14T04:59:21.365Z,14.67
2022-10-14T05:01:47.728Z,14.67
2022-10-14T05:04:14.348Z,14.66
2022-10-14T05:06:40.793Z,14.66
2022-10-14T05:09:07.183Z,14.64
2022-10-14T05:11:33.830Z,14.64
2022-10-14T05:14:00.299Z,14.63
2022-10-14T05:16:26.892Z,14.63
2022-10-14T05:18:53.285Z,14.63
2022-10-14T05:21:19.618Z,14.63
2022-10-14T05:23:45.983Z,14.62
2022-10-14T05:26:12.319Z,14.62
2022-10-14T05:28:38.728Z,14.61
2022-10-14T05:31:05.730Z,14.61
2022-10-14T05:33:32.426Z,14.59
2022-10-14T05:35:59.883Z,14.60
2022-10-14T05:38:26.718Z,14.59
2022-10-14T05:40:55.293Z,14.59
2022-10-14T05:43:22.100Z,14.60
2022-10-14T05:45:48.475Z,14.61
2022-10-14T05:48:15.170Z,14.60
2022-10-14T05:50:43.199Z,14.61
2022-10-14T05:53:10.554Z,14.61
2022-10-14T05:55:37.159Z,14.61
2022-10-14T05:58:04.101Z,14.62
2022-10-14T06:00:30.875Z,14.61
2022-10-14T06:02:58.652Z,14.61
2022-10-14T06:05:25.067Z,14.61
2022-10-14T06:07:51.493Z,14.61
2022-10-14T06:10:18.090Z,14.60
2022-10-14T06:12:44.497Z,14.60
2022-10-14T06:15:10.951Z,14.60
2022-10-14T06:17:37.335Z,14.59
2022-10-14T06:20:03.930Z,14.58
2022-10-14T06:22:30.775Z,14.59
2022-10-14T06:25:00.488Z,14.59
2022-10-14T06:27:30.286Z,14.62
2022-10-14T06:29:56.644Z,14.64
2022-10-14T06:32:23.332Z,14.67
2022-10-14T06:34:50.006Z,14.70
2022-10-14T06:37:16.328Z,14.74
2022-10-14T06:39:45.002Z,14.77
2022-10-14T06:42:13.266Z,14.80
2022-10-14T06:44:39.841Z,14.83
2022-10-14T06:47:07.143Z,14.87
2022-10-14T06:49:33.912Z,14.91
2022-10-14T06:52:00.329Z,14.96
2022-10-14T06:54:26.673Z,15.01
2022-10-14T06:56:53.006Z,15.03
2022-10-14T06:59:20.401Z,15.07
2022-10-14T07:01:46.773Z,15.12
2022-10-14T07:04:13.146Z,15.15
2022-10-14T07:06:39.533Z,15.20
2022-10-14T07:09:05.866Z,15.22
2022-10-14T07:11:32.219Z,15.27
2022-10-14T07:13:59.197Z,15.33
2022-10-14T07:16:26.435Z,15.38
2022-10-14T07:18:52.830Z,15.46
2022-10-14T07:21:19.335Z,15.52
2022-10-14T07:23:45.848Z,15.59
2022-10-14T07:26:12.183Z,15.65
2022-10-14T07:28:40.506Z,15.70
2022-10-14T07:31:09.790Z,15.77
2022-10-14T07:36:05.978Z,15.85
2022-10-14T07:38:32.850Z,15.90
2022-10-14T07:41:05.465Z,15.95
2022-10-14T07:43:33.331Z,15.98
2022-10-14T07:46:05.565Z,16.03
2022-10-14T07:48:52.192Z,16.09
2022-10-14T07:51:20.367Z,16.13
2022-10-14T07:53:49.101Z,16.18
2022-10-14T07:56:15.623Z,16.25
2022-10-14T07:58:44.506Z,16.31
2022-10-14T08:01:11.303Z,16.38
2022-10-14T08:03:37.865Z,16.45
2022-10-14T08:06:05.266Z,16.51
2022-10-14T08:08:32.411Z,16.58
2022-10-14T08:11:02.935Z,16.66
2022-10-14T08:13:30.197Z,16.72
2022-10-14T08:15:56.859Z,16.77
2022-10-14T08:18:23.487Z,16.82
2022-10-14T08:20:49.802Z,16.86
2022-10-14T08:23:19.102Z,16.91
2022-10-14T08:25:50.026Z,16.96
2022-10-14T08:28:16.475Z,16.99
2022-10-14T08:30:42.887Z,17.05
2022-10-14T08:33:09.236Z,17.10
2022-10-14T08:35:35.603Z,17.17
2022-10-14T08:38:02.052Z,17.23
2022-10-14T08:40:30.678Z,17.31
2022-10-14T08:43:01.919Z,17.42
2022-10-14T08:45:37.229Z,17.50
2022-10-14T08:48:17.645Z,17.59
2022-10-14T08:50:54.641Z,17.69
2022-10-14T08:53:28.616Z,17.77
2022-10-14T08:56:00.437Z,17.84
2022-10-14T08:58:32.003Z,17.90
2022-10-14T09:01:03.098Z,17.95
2022-10-14T09:03:34.717Z,17.97
2022-10-14T09:06:04.993Z,17.98
2022-10-14T09:08:40.513Z,18.03
2022-10-14T09:11:12.982Z,18.06
2022-10-14T09:13:42.965Z,18.08
2022-10-14T09:16:25.189Z,18.14
2022-10-14T09:19:00.851Z,18.18
2022-10-14T09:21:53.000Z,18.21
2022-10-14T09:24:23.819Z,18.24
2022-10-14T09:27:09.095Z,18.26
2022-10-14T09:29:54.132Z,18.28
2022-10-14T09:32:29.777Z,18.29
2022-10-14T09:34:57.791Z,18.30
2022-10-14T09:37:33.150Z,18.35
2022-10-14T09:39:59.441Z,18.39
2022-10-14T09:42:58.763Z,18.49
2022-10-14T09:45:27.672Z,18.54
2022-10-14T09:47:57.621Z,18.63
2022-10-14T09:50:31.286Z,18.74
2022-10-14T09:53:03.678Z,18.84
2022-10-14T09:55:31.258Z,18.92
2022-10-14T09:58:07.311Z,19.02
2022-10-14T10:00:37.596Z,19.08
2022-10-14T10:03:04.759Z,19.11
2022-10-14T10:05:33.389Z,19.14
2022-10-14T10:08:20.007Z,19.18
2022-10-14T10:11:07.167Z,19.20
2022-10-14T10:13:43.411Z,19.25
2022-10-14T10:16:31.370Z,19.32
2022-10-14T10:19:01.221Z,19.39
2022-10-14T10:21:30.123Z,19.49
2022-10-14T10:24:01.182Z,19.60
2022-10-14T10:26:32.051Z,19.69
2022-10-14T10:29:04.492Z,19.77
2022-10-14T10:31:35.762Z,19.88
2022-10-14T10:34:25.841Z,20.01
2022-10-14T10:37:00.104Z,20.14
2022-10-14T10:39:42.145Z,20.32
2022-10-14T10:42:25.337Z,20.46
2022-10-14T10:45:06.347Z,20.60
2022-10-14T10:47:37.781Z,20.69
2022-10-14T10:50:13.473Z,20.77
2022-10-14T10:52:59.571Z,20.78
2022-10-14T10:56:11.471Z,20.78
2022-10-14T10:59:03.092Z,20.73
2022-10-14T11:01:39.089Z,20.67
2022-10-14T11:04:25.839Z,20.59
2022-10-14T11:07:35.636Z,20.57
2022-10-14T11:10:24.527Z,20.54
2022-10-14T11:13:05.543Z,20.56
2022-10-14T11:15:45.505Z,20.59
2022-10-14T11:18:22.872Z,20.63
2022-10-14T11:21:07.985Z,20.66
2022-10-14T11:24:17.502Z,20.73
2022-10-14T11:26:55.776Z,20.75
2022-10-14T11:29:50.111Z,20.79
2022-10-14T11:32:38.177Z,20.79
2022-10-14T11:35:47.046Z,20.79
2022-10-14T11:38:31.881Z,20.78
2022-10-14T11:41:17.661Z,20.78
2022-10-14T11:43:51.951Z,20.80
2022-10-14T11:46:21.475Z,20.78
2022-10-14T11:48:53.845Z,20.82
2022-10-14T11:51:40.547Z,20.84
2022-10-14T11:54:16.707Z,20.87
2022-10-14T11:57:02.559Z,20.88
2022-10-14T11:59:44.880Z,20.88
2022-10-14T12:02:19.409Z,20.86
2022-10-14T12:04:54.149Z,20.82
2022-10-14T12:07:29.140Z,20.81
2022-10-14T12:10:01.588Z,20.81
2022-10-14T12:12:30.038Z,20.82
2022-10-14T12:15:05.674Z,20.88
2022-10-14T12:17:54.833Z,20.92
2022-10-14T12:20:47.819Z,21.00
2022-10-14T12:23:32.815Z,21.07
2022-10-14T12:26:30.068Z,21.13
2022-10-14T12:28:58.776Z,21.14
2022-10-14T12:31:27.815Z,21.17
2022-10-14T12:34:13.434Z,21.20
2022-10-14T12:36:42.276Z,21.18
2022-10-14T12:39:17.962Z,21.19
2022-10-14T12:41:54.170Z,21.18
2022-10-14T12:44:23.210Z,21.14
2022-10-14T12:46:53.039Z,21.12
2022-10-14T12:49:29.171Z,21.10
2022-10-14T12:52:02.668Z,21.07
2022-10-14T12:54:31.565Z,21.03
2022-10-14T12:57:28.706Z,21.01
2022-10-14T12:59:59.292Z,20.97
2022-10-14T13:02:35.837Z,20.96
2022-10-14T13:05:08.503Z,20.95
2022-10-14T13:07:41.176Z,20.97
2022-10-14T13:10:27.597Z,20.99
2022-10-14T13:12:54.049Z,20.97
2022-10-14T13:15:51.121Z,20.98
2022-10-14T13:18:34.609Z,20.97
2022-10-14T13:21:01.808Z,20.94
2022-10-14T13:23:31.062Z,20.93
2022-10-14T13:26:17.671Z,20.93
2022-10-14T13:29:09.508Z,20.90
2022-10-14T13:31:58.673Z,20.89
2022-10-14T13:34:43.435Z,20.87
2022-10-14T13:37:34.740Z,20.85
2022-10-14T13:40:17.714Z,20.81
2022-10-14T13:42:56.613Z,20.78
2022-10-14T13:45:31.935Z,20.76
2022-10-14T13:47:58.607Z,20.74
2022-10-14T13:50:32.724Z,20.74
2022-10-14T13:53:03.227Z,20.73
2022-10-14T13:55:30.663Z,20.72
2022-10-14T13:58:13.586Z,20.72
2022-10-14T14:00:45.392Z,20.72
2022-10-14T14:03:23.695Z,20.73
2022-10-14T14:05:51.150Z,20.69
2022-10-14T14:08:40.294Z,20.70
2022-10-14T14:11:16.834Z,20.66
2022-10-14T14:13:59.012Z,20.67
2022-10-14T14:16:33.271Z,20.64
2022-10-14T14:19:14.848Z,20.59
2022-10-14T14:21:41.266Z,20.57
2022-10-14T14:24:16.610Z,20.56
2022-10-14T14:26:43.943Z,20.53
2022-10-14T14:29:19.494Z,20.52
2022-10-14T14:32:06.052Z,20.50
2022-10-14T14:34:35.916Z,20.49
2022-10-14T14:37:16.604Z,20.49
2022-10-14T14:40:03.291Z,20.52
2022-10-14T14:42:39.431Z,20.51
2022-10-14T14:45:17.905Z,20.54
2022-10-14T14:47:44.778Z,20.51
2022-10-14T14:50:29.863Z,20.53
2022-10-14T14:53:03.469Z,20.51
2022-10-14T14:55:56.824Z,20.51
2022-10-14T14:58:29.093Z,20.50
2022-10-14T15:00:55.840Z,20.47
2022-10-14T15:03:26.086Z,20.46
2022-10-14T15:06:02.257Z,20.43
2022-10-14T15:08:35.951Z,20.41
2022-10-14T15:11:02.604Z,20.35
2022-10-14T15:13:32.517Z,20.32
2022-10-14T15:15:59.447Z,20.27
2022-10-14T15:18:28.209Z,20.23
2022-10-14T15:21:09.727Z,20.16
2022-10-14T15:23:48.183Z,20.11
2022-10-14T15:26:35.855Z,20.04
2022-10-14T15:29:22.437Z,19.97
2022-10-14T15:32:04.023Z,19.92
2022-10-14T15:34:30.880Z,19.86
2022-10-14T15:36:57.271Z,19.82
2022-10-14T15:39:23.710Z,19.78
2022-10-14T15:41:50.054Z,19.73
2022-10-14T15:44:16.507Z,19.68
2022-10-14T15:47:03.056Z,19.63
2022-10-14T15:49:42.050Z,19.59
2022-10-14T15:52:13.863Z,19.53
2022-10-14T15:54:40.191Z,19.46
2022-10-14T15:57:07.101Z,19.41
2022-10-14T15:59:34.610Z,19.35
2022-10-14T16:02:01.343Z,19.30
2022-10-14T16:04:29.045Z,19.27
2022-10-14T16:06:56.714Z,19.23
2022-10-14T16:09:25.050Z,19.20
2022-10-14T16:11:57.278Z,19.16
2022-10-14T16:14:25.331Z,19.12
2022-10-14T16:16:51.703Z,19.08
2022-10-14T16:19:18.721Z,19.05
2022-10-14T16:21:45.295Z,19.02
2022-10-14T16:24:18.829Z,19.00
2022-10-14T16:26:45.196Z,18.96
2022-10-14T16:29:11.530Z,18.92
2022-10-14T16:31:38.868Z,18.89
2022-10-14T16:34:05.216Z,18.86
2022-10-14T16:36:31.807Z,18.84
2022-10-14T16:38:58.182Z,18.82
2022-10-14T16:41:25.017Z,18.78
2022-10-14T16:43:51.352Z,18.76
2022-10-14T16:46:17.687Z,18.74
2022-10-14T16:48:44.633Z,18.71
2022-10-14T16:51:11.094Z,18.67
2022-10-14T16:53:40.469Z,18.64
2022-10-14T16:56:33.667Z,18.63
2022-10-14T16:59:00.867Z,18.60
2022-10-14T17:01:28.149Z,18.60
2022-10-14T17:03:56.426Z,18.57
2022-10-14T17:06:24.320Z,18.55
2022-10-14T17:08:51.257Z,18.55
2022-10-14T17:11:18.208Z,18.55
2022-10-14T17:13:44.560Z,18.53
2022-10-14T17:16:11.150Z,18.53
2022-10-14T17:18:37.885Z,18.52
2022-10-14T17:21:10.588Z,18.51
2022-10-14T17:23:40.207Z,18.50
2022-10-14T17:26:06.998Z,18.48
2022-10-14T17:28:33.497Z,18.46
2022-10-14T17:31:01.301Z,18.45
2022-10-14T17:33:27.895Z,18.43
2022-10-14T17:35:59.244Z,18.43
2022-10-14T17:38:27.707Z,18.40
2022-10-14T17:41:06.095Z,18.39
2022-10-14T17:43:32.850Z,18.37
2022-10-14T17:48:35.081Z,18.32
2022-10-14T17:51:02.213Z,18.30
2022-10-14T17:53:28.875Z,18.31
2022-10-14T17:55:57.762Z,18.31
2022-10-14T17:58:24.278Z,18.30
2022-10-14T18:00:51.439Z,18.30
2022-10-14T18:03:18.566Z,18.29
2022-10-14T18:05:48.143Z,18.29
2022-10-14T18:08:15.447Z,18.28
2022-10-14T18:10:41.870Z,18.27
2022-10-14T18:13:08.182Z,18.26
2022-10-14T18:15:34.604Z,18.26
2022-10-14T18:18:01.198Z,18.25
2022-10-14T18:20:27.721Z,18.26
2022-10-14T18:22:54.182Z,18.27
2022-10-14T18:25:21.049Z,18.28
2022-10-14T18:27:47.522Z,18.29
2022-10-14T18:30:14.137Z,18.30
2022-10-14T18:32:40.538Z,18.30
2022-10-14T18:35:07.002Z,18.31
2022-10-14T18:37:33.467Z,18.30
2022-10-14T18:40:00.022Z,18.31
2022-10-14T18:42:26.871Z,18.31
2022-10-14T18:44:53.652Z,18.32
2022-10-14T18:47:19.983Z,18.31
2022-10-14T18:49:48.272Z,18.33
2022-10-14T18:52:14.661Z,18.33
2022-10-14T18:54:41.031Z,18.34
2022-10-14T18:57:07.479Z,18.32
2022-10-14T18:59:35.653Z,18.33
2022-10-14T19:02:02.308Z,18.33
2022-10-14T19:04:28.720Z,18.33
2022-10-14T19:06:55.166Z,18.35
2022-10-14T19:09:24.544Z,18.34
2022-10-14T19:11:52.089Z,18.34
2022-10-14T19:14:18.482Z,18.34
2022-10-14T19:16:47.345Z,18.32
2022-10-14T19:19:16.766Z,18.33
2022-10-14T19:21:44.641Z,18.33
2022-10-14T19:24:12.767Z,18.33
2022-10-14T19:26:43.024Z,18.32
2022-10-14T19:29:12.116Z,18.31
2022-10-14T19:31:39.642Z,18.28
2022-10-14T19:34:08.150Z,18.24
2022-10-14T19:36:36.785Z,18.22
2022-10-14T19:39:05.248Z,18.19
2022-10-14T19:41:34.040Z,18.17
2022-10-14T19:44:01.244Z,18.16
2022-10-14T19:46:29.209Z,18.15
2022-10-14T19:48:58.460Z,18.14
2022-10-14T19:51:25.950Z,18.12
2022-10-14T19:53:54.926Z,18.12
2022-10-14T19:56:22.311Z,18.10
2022-10-14T19:58:54.378Z,18.10
2022-10-14T20:01:23.727Z,18.09
2022-10-14T20:03:50.247Z,18.07
2022-10-14T20:06:16.691Z,18.07
2022-10-14T20:08:45.144Z,18.05
2022-10-14T20:11:17.159Z,18.04
2022-10-14T20:13:44.119Z,18.00
2022-10-14T20:16:11.767Z,17.99
2022-10-14T20:18:38.283Z,17.97
2022-10-14T20:21:06.926Z,17.96
2022-10-14T20:23:35.109Z,17.95
2022-10-14T20:26:03.955Z,17.93
2022-10-14T20:28:30.707Z,17.92
2022-10-14T20:30:57.467Z,17.91
2022-10-14T20:33:24.589Z,17.91
2022-10-14T20:36:01.757Z,17.92
2022-10-14T20:38:28.568Z,17.90
2022-10-14T20:40:55.033Z,17.88
2022-10-14T20:43:21.469Z,17.88
2022-10-14T20:45:47.839Z,17.85
2022-10-14T20:48:14.409Z,17.85
2022-10-14T20:50:41.918Z,17.82
2022-10-14T20:53:08.402Z,17.81
2022-10-14T20:55:34.731Z,17.78
2022-10-14T20:58:01.128Z,17.76
2022-10-14T21:00:27.767Z,17.74
2022-10-14T21:02:54.148Z,17.73
2022-10-14T21:05:20.564Z,17.71
2022-10-14T21:07:46.939Z,17.70
2022-10-14T21:10:13.292Z,17.67
2022-10-14T21:12:39.734Z,17.65
2022-10-14T21:15:06.641Z,17.62
2022-10-14T21:17:33.042Z,17.61
2022-10-14T21:19:59.409Z,17.58
2022-10-14T21:22:25.982Z,17.56
2022-10-14T21:24:52.595Z,17.54
2022-10-14T21:27:18.966Z,17.51
2022-10-14T21:29:47.909Z,17.51
2022-10-14T21:32:14.304Z,17.49
2022-10-14T21:34:40.691Z,17.47
2022-10-14T21:37:07.077Z,17.44
2022-10-14T21:39:33.488Z,17.41
2022-10-14T21:42:00.049Z,17.39
2022-10-14T21:44:26.479Z,17.35
2022-10-14T21:46:52.879Z,17.32
2022-10-14T21:49:19.304Z,17.29
2022-10-14T21:51:45.638Z,17.26
2022-10-14T21:54:12.711Z,17.22
2022-10-14T21:56:39.317Z,17.18
2022-10-14T21:59:06.264Z,17.16
2022-10-14T22:01:32.867Z,17.12
2022-10-14T22:04:03.564Z,17.10
2022-10-14T22:06:31.160Z,17.07
2022-10-14T22:09:00.096Z,17.08
2022-10-14T22:11:35.115Z,17.05
2022-10-14T22:14:03.494Z,17.05
2022-10-14T22:16:30.728Z,17.03
2022-10-14T22:19:02.503Z,17.02
2022-10-14T22:21:31.158Z,17.00
2022-10-14T22:23:58.857Z,16.98
2022-10-14T22:26:27.346Z,16.97
2022-10-14T22:28:59.165Z,16.98
2022-10-14T22:31:26.620Z,16.96
2022-10-14T22:33:53.101Z,16.97
2022-10-14T22:36:24.018Z,16.98
2022-10-14T22:38:52.312Z,16.98
2022-10-14T22:41:19.656Z,16.98
2022-10-14T22:43:51.666Z,16.99
2022-10-14T22:46:20.724Z,16.99
2022-10-14T22:48:48.723Z,16.98
2022-10-14T22:51:18.357Z,16.98
2022-10-14T22:53:46.181Z,16.97
2022-10-14T22:56:16.609Z,16.97
2022-10-14T22:58:43.038Z,16.96
2022-10-14T23:01:15.222Z,16.96
2022-10-14T23:03:42.533Z,16.94
2022-10-14T23:06:12.207Z,16.94
2022-10-14T23:08:39.419Z,16.93
2022-10-14T23:11:06.307Z,16.93
2022-10-14T23:13:33.749Z,16.91
2022-10-14T23:16:02.548Z,16.89
2022-10-14T23:18:31.612Z,16.88
2022-10-14T23:20:58.055Z,16.86
2022-10-14T23:23:24.751Z,16.84
2022-10-14T23:25:51.096Z,16.83
2022-10-14T23:28:17.467Z,16.81
2022-10-14T23:30:43.876Z,16.80
2022-10-14T23:33:11.734Z,16.81
2022-10-14T23:35:38.851Z,16.81
2022-10-14T23:38:05.422Z,16.81
2022-10-14T23:40:31.847Z,16.81
2022-10-14T23:42:58.307Z,16.81
2022-10-14T23:45:24.719Z,16.81
2022-10-14T23:47:51.247Z,16.81
2022-10-14T23:50:17.760Z,16.82
2022-10-14T23:52:45.786Z,16.83
2022-10-14T23:55:13.578Z,16.85
2022-10-14T23:57:40.423Z,16.86
